createdAt,value
2019-01-27T00:00:41.822Z,41.18
2019-01-27T00:03:07.854Z,39.65
2019-01-27T00:05:34.036Z,48.13
2019-01-27T00:08:00.073Z,41.25
2019-01-27T00:10:26.096Z,39.55
2019-01-27T00:12:52.268Z,39.45
2019-01-27T00:15:18.401Z,38.48
2019-01-27T00:17:44.809Z,33.00
2019-01-27T00:20:16.690Z,33.80
2019-01-27T00:22:42.729Z,31.70
2019-01-27T00:25:08.870Z,33.92
2019-01-27T00:27:34.910Z,28.80
2019-01-27T00:30:01.289Z,27.57
2019-01-27T00:32:27.336Z,28.10
2019-01-27T00:34:57.324Z,26.70
2019-01-27T00:37:23.475Z,25.70
2019-01-27T00:39:49.803Z,27.03
2019-01-27T00:42:15.946Z,30.15
2019-01-27T00:44:42.021Z,24.00
2019-01-27T00:47:08.178Z,21.80
2019-01-27T00:49:34.240Z,22.00
2019-01-27T00:52:00.357Z,21.97
2019-01-27T00:54:26.418Z,20.65
2019-01-27T00:56:52.439Z,23.85
2019-01-27T00:59:18.484Z,20.80
2019-01-27T01:01:44.661Z,19.40
2019-01-27T01:04:10.770Z,19.48
2019-01-27T01:06:37.052Z,18.37
2019-01-27T01:09:07.060Z,17.55
2019-01-27T01:11:33.129Z,20.08
2019-01-27T01:13:59.396Z,21.15
2019-01-27T01:16:25.458Z,20.72
2019-01-27T01:18:51.513Z,22.10
2019-01-27T01:21:17.576Z,20.57
2019-01-27T01:23:45.312Z,20.75
2019-01-27T01:26:11.348Z,21.95
2019-01-27T01:28:37.737Z,22.77
2019-01-27T01:31:04.271Z,24.37
2019-01-27T01:33:30.311Z,23.73
2019-01-27T01:35:56.459Z,24.90
2019-01-27T01:38:22.492Z,25.68
2019-01-27T01:40:48.533Z,26.33
2019-01-27T01:43:14.556Z,23.77
2019-01-27T01:45:40.608Z,23.77
2019-01-27T01:48:06.640Z,25.80
2019-01-27T01:50:32.696Z,27.13
2019-01-27T01:52:58.760Z,27.10
2019-01-27T01:55:24.810Z,24.27
2019-01-27T01:57:50.849Z,26.80
2019-01-27T02:00:20.727Z,25.37
2019-01-27T02:02:46.871Z,24.57
2019-01-27T02:05:14.655Z,24.85
2019-01-27T02:07:40.676Z,24.97
2019-01-27T02:10:09.708Z,24.43
2019-01-27T02:12:35.748Z,22.60
2019-01-27T02:15:04.085Z,22.27
2019-01-27T02:17:30.163Z,22.17
2019-01-27T02:19:56.197Z,22.15
2019-01-27T02:22:22.224Z,21.42
2019-01-27T02:24:48.256Z,19.17
2019-01-27T02:27:14.356Z,19.55
2019-01-27T02:29:40.407Z,18.27
2019-01-27T02:32:06.549Z,17.60
2019-01-27T02:34:32.608Z,17.82
2019-01-27T02:36:58.627Z,17.07
2019-01-27T02:39:24.730Z,17.50
2019-01-27T02:41:50.873Z,16.40
2019-01-27T02:44:16.931Z,16.07
2019-01-27T02:46:42.956Z,16.60
2019-01-27T02:49:09.031Z,17.37
2019-01-27T02:51:35.148Z,15.30
2019-01-27T02:54:01.215Z,14.87
2019-01-27T02:56:27.298Z,15.10
2019-01-27T02:58:53.400Z,15.80
2019-01-27T03:01:19.451Z,12.70
2019-01-27T03:03:45.512Z,12.80
2019-01-27T03:06:13.450Z,13.50
2019-01-27T03:08:40.987Z,12.53
2019-01-27T03:11:08.058Z,13.60
2019-01-27T03:13:34.097Z,13.28
2019-01-27T03:16:00.223Z,11.95
2019-01-27T03:18:26.336Z,12.65
2019-01-27T03:20:52.375Z,11.63
2019-01-27T03:23:18.676Z,10.60
2019-01-27T03:25:44.713Z,10.90
2019-01-27T03:28:10.747Z,10.65
2019-01-27T03:30:37.123Z,10.38
2019-01-27T03:33:03.187Z,10.45
2019-01-27T03:35:29.211Z,10.35
2019-01-27T03:37:55.250Z,9.53
2019-01-27T03:40:21.383Z,9.55
2019-01-27T03:42:47.452Z,9.30
2019-01-27T03:45:19.152Z,10.32
2019-01-27T03:47:45.302Z,7.60
2019-01-27T03:50:16.729Z,9.68
2019-01-27T03:52:42.777Z,8.85
2019-01-27T03:55:12.160Z,10.20
2019-01-27T03:57:38.284Z,9.37
2019-01-27T04:00:19.957Z,9.10
2019-01-27T04:02:46.126Z,9.57
2019-01-27T04:05:12.252Z,9.33
2019-01-27T04:07:39.091Z,9.68
2019-01-27T04:10:08.950Z,9.47
2019-01-27T04:12:34.998Z,8.90
2019-01-27T04:15:01.028Z,9.30
2019-01-27T04:17:27.160Z,9.08
2019-01-27T04:19:53.228Z,9.60
2019-01-27T04:22:19.292Z,8.98
2019-01-27T04:24:45.373Z,8.43
2019-01-27T04:27:11.426Z,9.75
2019-01-27T04:29:37.614Z,8.70
2019-01-27T04:32:03.637Z,9.93
2019-01-27T04:34:29.685Z,9.20
2019-01-27T04:36:55.807Z,8.70
2019-01-27T04:39:21.842Z,10.28
2019-01-27T04:41:47.899Z,10.50
2019-01-27T04:44:13.928Z,8.35
2019-01-27T04:46:39.960Z,8.70
2019-01-27T04:49:06.340Z,8.30
2019-01-27T04:51:32.381Z,9.33
2019-01-27T04:53:58.432Z,7.90
2019-01-27T04:56:24.481Z,7.22
2019-01-27T04:58:50.542Z,7.40
2019-01-27T05:01:16.582Z,6.70
2019-01-27T05:03:44.581Z,7.08
2019-01-27T05:06:10.617Z,7.37
2019-01-27T05:08:36.889Z,7.42
2019-01-27T05:11:03.393Z,8.03
2019-01-27T05:13:29.519Z,8.63
2019-01-27T05:15:55.557Z,7.53
2019-01-27T05:18:21.631Z,7.03
2019-01-27T05:20:47.668Z,7.03
2019-01-27T05:23:13.711Z,8.18
2019-01-27T05:25:39.776Z,8.35
2019-01-27T05:28:05.824Z,9.30
2019-01-27T05:30:31.869Z,9.25
2019-01-27T05:32:57.931Z,7.90
2019-01-27T05:35:24.019Z,7.83
2019-01-27T05:37:50.170Z,8.70
2019-01-27T05:40:17.488Z,7.83
2019-01-27T05:42:43.544Z,7.10
2019-01-27T05:45:17.936Z,8.00
2019-01-27T05:47:43.983Z,7.17
2019-01-27T05:50:14.064Z,7.15
2019-01-27T05:52:40.303Z,6.83
2019-01-27T05:55:09.158Z,6.90
2019-01-27T05:57:35.202Z,7.30
2019-01-27T06:00:01.469Z,7.42
2019-01-27T06:02:27.496Z,7.23
2019-01-27T06:04:53.851Z,7.87
2019-01-27T06:07:19.925Z,6.70
2019-01-27T06:09:46.155Z,8.08
2019-01-27T06:12:12.186Z,6.25
2019-01-27T06:14:38.236Z,6.97
2019-01-27T06:17:04.341Z,7.00
2019-01-27T06:19:30.468Z,6.80
2019-01-27T06:21:56.494Z,7.50
2019-01-27T06:24:22.917Z,8.23
2019-01-27T06:26:48.969Z,7.93
2019-01-27T06:29:15.057Z,6.30
2019-01-27T06:31:41.320Z,7.30
2019-01-27T06:34:07.598Z,7.20
2019-01-27T06:36:33.637Z,6.67
2019-01-27T06:38:59.743Z,7.42
2019-01-27T06:41:25.872Z,6.70
2019-01-27T06:43:52.064Z,6.20
2019-01-27T06:46:18.084Z,8.08
2019-01-27T06:48:44.218Z,7.62
2019-01-27T06:51:10.286Z,7.00
2019-01-27T06:53:36.401Z,8.10
2019-01-27T06:56:03.717Z,7.40
2019-01-27T06:58:31.636Z,7.00
2019-01-27T07:01:02.403Z,7.97
2019-01-27T07:03:30.346Z,8.70
2019-01-27T07:06:06.876Z,8.03
2019-01-27T07:08:40.345Z,7.30
2019-01-27T07:11:17.242Z,8.03
2019-01-27T07:13:50.976Z,7.45
2019-01-27T07:16:18.900Z,10.90
2019-01-27T07:18:55.705Z,7.90
2019-01-27T07:21:26.426Z,6.90
2019-01-27T07:24:12.528Z,6.70
2019-01-27T07:26:40.475Z,6.92
2019-01-27T07:29:23.435Z,6.37
2019-01-27T07:32:03.302Z,7.20
2019-01-27T07:34:31.280Z,8.30
2019-01-27T07:36:59.428Z,7.07
2019-01-27T07:39:39.701Z,6.85
2019-01-27T07:42:07.762Z,7.35
2019-01-27T07:44:35.737Z,7.10
2019-01-27T07:47:20.897Z,6.58
2019-01-27T07:49:54.846Z,6.67
2019-01-27T07:52:31.848Z,8.73
2019-01-27T07:55:11.907Z,7.10
2019-01-27T07:57:39.855Z,6.53
2019-01-27T08:00:11.771Z,6.60
2019-01-27T08:02:49.013Z,9.30
2019-01-27T08:05:21.757Z,7.20
2019-01-27T08:07:52.952Z,6.53
2019-01-27T08:10:37.738Z,6.40
2019-01-27T08:13:31.319Z,6.97
2019-01-27T08:16:02.181Z,6.00
2019-01-27T08:18:35.777Z,7.00
2019-01-27T08:21:03.821Z,9.15
2019-01-27T08:23:34.924Z,7.40
2019-01-27T08:26:02.869Z,5.62
2019-01-27T08:28:31.098Z,8.45
2019-01-27T08:31:04.984Z,7.65
2019-01-27T08:33:32.940Z,10.45
2019-01-27T08:36:13.653Z,6.80
2019-01-27T08:38:44.511Z,8.18
2019-01-27T08:41:29.516Z,5.10
2019-01-27T08:44:00.241Z,4.87
2019-01-27T08:46:30.933Z,5.03
2019-01-27T08:48:56.968Z,5.17
2019-01-27T08:51:23.046Z,5.27
2019-01-27T08:53:49.065Z,4.75
2019-01-27T08:56:15.150Z,7.70
2019-01-27T08:58:41.456Z,7.20
2019-01-27T09:01:09.668Z,4.43
2019-01-27T09:03:40.587Z,4.33
2019-01-27T09:06:14.874Z,4.60
2019-01-27T09:08:58.353Z,5.03
2019-01-27T09:11:29.436Z,4.60
2019-01-27T09:13:57.472Z,4.40
2019-01-27T09:16:42.349Z,4.72
2019-01-27T09:19:10.308Z,4.70
2019-01-27T09:21:38.257Z,4.83
2019-01-27T09:24:23.353Z,4.30
2019-01-27T09:26:51.282Z,5.30
2019-01-27T09:29:19.228Z,5.58
2019-01-27T09:31:50.203Z,5.55
2019-01-27T09:34:33.170Z,6.55
2019-01-27T09:37:01.158Z,3.77
2019-01-27T09:39:47.616Z,5.03
2019-01-27T09:42:15.862Z,5.22
2019-01-27T09:44:58.896Z,4.20
2019-01-27T09:47:29.480Z,4.50
2019-01-27T09:50:00.532Z,3.70
2019-01-27T09:52:31.537Z,4.95
2019-01-27T09:54:59.493Z,3.58
2019-01-27T09:57:39.224Z,4.50
2019-01-27T10:00:14.187Z,4.12
2019-01-27T10:02:54.395Z,4.05
2019-01-27T10:05:34.340Z,4.22
2019-01-27T10:08:04.972Z,4.00
2019-01-27T10:10:35.732Z,3.40
2019-01-27T10:13:03.793Z,3.92
2019-01-27T10:15:31.844Z,3.17
2019-01-27T10:18:11.847Z,3.55
2019-01-27T10:20:45.847Z,3.47
2019-01-27T10:23:13.804Z,4.53
2019-01-27T10:25:44.280Z,3.25
2019-01-27T10:28:12.211Z,2.70
2019-01-27T10:30:46.567Z,2.70
2019-01-27T10:33:31.263Z,3.33
2019-01-27T10:36:16.095Z,3.35
2019-01-27T10:38:59.170Z,3.60
2019-01-27T10:41:30.169Z,3.10
2019-01-27T10:44:00.669Z,3.35
2019-01-27T10:46:40.506Z,3.42
2019-01-27T10:49:14.309Z,2.90
2019-01-27T10:51:43.378Z,3.50
2019-01-27T10:54:29.990Z,4.70
2019-01-27T10:57:16.092Z,4.72
2019-01-27T11:00:01.002Z,4.55
2019-01-27T11:02:47.182Z,3.40
2019-01-27T11:05:15.504Z,3.05
2019-01-27T11:07:43.435Z,3.80
2019-01-27T11:10:23.787Z,3.27
2019-01-27T11:12:57.287Z,3.20
2019-01-27T11:15:25.261Z,2.95
2019-01-27T11:17:53.333Z,2.47
2019-01-27T11:20:40.069Z,3.67
2019-01-27T11:23:20.277Z,2.67
2019-01-27T11:25:48.200Z,3.00
2019-01-27T11:28:16.144Z,3.02
2019-01-27T11:30:47.334Z,3.70
2019-01-27T11:33:21.162Z,2.70
2019-01-27T11:35:52.048Z,3.98
2019-01-27T11:38:20.082Z,3.30
2019-01-27T11:40:49.414Z,3.00
2019-01-27T11:43:29.335Z,3.55
2019-01-27T11:46:12.545Z,4.22
2019-01-27T11:48:49.689Z,2.95
2019-01-27T11:51:17.653Z,2.47
2019-01-27T11:53:43.696Z,3.90
2019-01-27T11:56:09.780Z,3.10
2019-01-27T11:58:35.870Z,2.60
2019-01-27T12:01:02.330Z,2.95
2019-01-27T12:03:28.374Z,7.47
2019-01-27T12:05:54.692Z,5.20
2019-01-27T12:08:20.775Z,2.80
2019-01-27T12:10:46.853Z,5.42
2019-01-27T12:13:12.937Z,4.30
2019-01-27T12:15:39.134Z,4.50
2019-01-27T12:18:05.532Z,3.93
2019-01-27T12:20:31.868Z,3.20
2019-01-27T12:22:57.922Z,3.57
2019-01-27T12:25:24.088Z,3.27
2019-01-27T12:27:50.222Z,3.60
2019-01-27T12:30:19.327Z,4.10
2019-01-27T12:32:45.481Z,3.50
2019-01-27T12:35:11.652Z,4.72
2019-01-27T12:37:37.840Z,4.08
2019-01-27T12:40:10.659Z,4.40
2019-01-27T12:42:37.063Z,3.58
2019-01-27T12:45:06.817Z,3.62
2019-01-27T12:47:33.843Z,3.50
2019-01-27T12:49:59.924Z,3.50
2019-01-27T12:52:26.078Z,3.33
2019-01-27T12:54:52.137Z,4.12
2019-01-27T12:57:18.437Z,3.30
2019-01-27T12:59:44.484Z,3.47
2019-01-27T13:02:10.679Z,3.10
2019-01-27T13:04:36.808Z,5.78
2019-01-27T13:07:03.334Z,3.20
2019-01-27T13:09:29.545Z,7.17
2019-01-27T13:11:56.035Z,4.53
2019-01-27T13:14:22.212Z,4.20
2019-01-27T13:16:48.489Z,2.90
2019-01-27T13:19:14.656Z,3.77
2019-01-27T13:21:41.015Z,5.40
2019-01-27T13:24:07.101Z,4.50
2019-01-27T13:26:37.336Z,3.40
2019-01-27T13:29:05.658Z,5.30
2019-01-27T13:31:33.068Z,15.68
2019-01-27T13:33:59.471Z,5.25
2019-01-27T13:36:25.521Z,5.35
2019-01-27T13:38:51.586Z,3.67
2019-01-27T13:41:17.724Z,3.27
2019-01-27T13:43:43.784Z,3.45
2019-01-27T13:46:09.883Z,4.53
2019-01-27T13:48:35.916Z,2.80
2019-01-27T13:51:01.996Z,2.70
2019-01-27T13:53:28.226Z,3.10
2019-01-27T13:55:54.246Z,3.90
2019-01-27T13:58:20.321Z,5.45
2019-01-27T14:00:46.370Z,3.40
2019-01-27T14:03:12.400Z,5.70
2019-01-27T14:05:38.851Z,4.20
2019-01-27T14:08:05.154Z,3.55
2019-01-27T14:10:31.324Z,3.00
2019-01-27T14:12:57.889Z,2.87
2019-01-27T14:15:27.357Z,3.00
2019-01-27T14:17:53.599Z,3.60
2019-01-27T14:20:19.812Z,7.08
2019-01-27T14:22:45.963Z,3.17
2019-01-27T14:25:17.830Z,2.70
2019-01-27T14:27:54.044Z,2.60
2019-01-27T14:30:27.101Z,2.40
2019-01-27T14:32:53.240Z,2.90
2019-01-27T14:35:19.322Z,3.30
2019-01-27T14:37:45.517Z,2.62
2019-01-27T14:40:17.589Z,2.87
2019-01-27T14:42:44.289Z,2.97
2019-01-27T14:45:13.524Z,2.70
2019-01-27T14:47:39.569Z,3.50
2019-01-27T14:50:11.848Z,3.25
2019-01-27T14:52:39.864Z,3.00
2019-01-27T14:55:09.418Z,3.70
2019-01-27T14:57:35.442Z,3.80
2019-01-27T15:00:01.841Z,4.58
2019-01-27T15:02:27.877Z,3.80
2019-01-27T15:04:54.228Z,3.90
2019-01-27T15:07:28.906Z,4.30
2019-01-27T15:09:50.844Z,5.65
2019-01-27T15:12:17.072Z,4.17
2019-01-27T15:14:43.137Z,4.40
2019-01-27T15:17:09.195Z,4.25
2019-01-27T15:19:35.256Z,7.92
2019-01-27T15:22:01.304Z,4.12
2019-01-27T15:24:27.541Z,4.58
2019-01-27T15:26:53.672Z,4.10
2019-01-27T15:29:19.800Z,4.90
2019-01-27T15:31:45.862Z,4.58
2019-01-27T15:34:11.937Z,4.78
2019-01-27T15:36:38.024Z,5.03
2019-01-27T15:39:06.060Z,5.95
2019-01-27T15:41:32.148Z,6.78
2019-01-27T15:43:58.176Z,5.00
2019-01-27T15:46:24.333Z,5.08
2019-01-27T15:48:50.510Z,4.72
2019-01-27T15:51:16.593Z,5.90
2019-01-27T15:53:42.624Z,6.65
2019-01-27T15:56:10.033Z,5.45
2019-01-27T15:58:36.465Z,6.80
2019-01-27T16:01:03.109Z,8.03
2019-01-27T16:03:29.148Z,5.90
2019-01-27T16:05:55.758Z,7.30
2019-01-27T16:08:21.804Z,6.43
2019-01-27T16:10:47.891Z,5.75
2019-01-27T16:13:14.071Z,5.42
2019-01-27T16:15:42.209Z,5.83
2019-01-27T16:18:10.271Z,6.60
2019-01-27T16:20:36.337Z,5.58
2019-01-27T16:23:13.773Z,5.35
2019-01-27T16:25:41.453Z,6.10
2019-01-27T16:28:07.888Z,5.63
2019-01-27T16:30:35.929Z,5.90
2019-01-27T16:33:06.764Z,5.58
2019-01-27T16:35:32.932Z,5.90
2019-01-27T16:37:59.380Z,6.00
2019-01-27T16:40:25.439Z,6.05
2019-01-27T16:42:51.795Z,6.12
2019-01-27T16:45:18.845Z,7.10
2019-01-27T16:47:45.046Z,6.47
2019-01-27T16:50:13.824Z,7.20
2019-01-27T16:52:40.276Z,6.75
2019-01-27T16:55:09.741Z,6.78
2019-01-27T16:57:36.082Z,8.60
2019-01-27T17:00:11.721Z,6.78
2019-01-27T17:02:38.236Z,8.00
2019-01-27T17:05:08.090Z,6.50
2019-01-27T17:07:35.344Z,7.08
2019-01-27T17:10:01.753Z,5.90
2019-01-27T17:12:28.069Z,7.27
2019-01-27T17:14:54.224Z,6.80
2019-01-27T17:17:20.295Z,7.20
2019-01-27T17:19:46.389Z,7.90
2019-01-27T17:22:12.482Z,7.70
2019-01-27T17:24:43.216Z,8.13
2019-01-27T17:27:09.298Z,8.08
2019-01-27T17:29:38.163Z,7.90
2019-01-27T17:32:04.239Z,9.10
2019-01-27T17:34:30.539Z,10.20
2019-01-27T17:36:56.692Z,10.30
2019-01-27T17:39:22.779Z,10.38
2019-01-27T17:41:48.889Z,10.00
2019-01-27T17:44:16.124Z,18.20
2019-01-27T17:46:42.366Z,53.85
2019-01-27T17:49:08.429Z,35.07
2019-01-27T17:51:34.511Z,27.37
2019-01-27T17:54:02.122Z,28.42
2019-01-27T17:56:28.177Z,17.07
2019-01-27T17:58:56.138Z,12.95
2019-01-27T18:01:24.280Z,13.23
2019-01-27T18:04:04.283Z,12.47
2019-01-27T18:06:32.318Z,12.45
2019-01-27T18:09:26.622Z,11.83
2019-01-27T18:11:54.886Z,12.40
2019-01-27T18:14:22.971Z,14.87
2019-01-27T18:16:49.023Z,11.90
2019-01-27T18:19:15.364Z,13.67
2019-01-27T18:21:41.415Z,12.57
2019-01-27T18:24:07.597Z,13.13
2019-01-27T18:26:33.938Z,13.15
2019-01-27T18:29:00.038Z,13.48
2019-01-27T18:31:26.240Z,14.23
2019-01-27T18:33:52.374Z,15.63
2019-01-27T18:36:18.809Z,18.07
2019-01-27T18:38:44.866Z,18.20
2019-01-27T18:41:11.224Z,24.85
2019-01-27T18:43:37.611Z,18.60
2019-01-27T18:46:03.815Z,18.85
2019-01-27T18:48:29.979Z,24.30
2019-01-27T18:50:56.064Z,18.50
2019-01-27T18:53:27.338Z,16.07
2019-01-27T18:55:55.297Z,17.05
2019-01-27T18:58:26.246Z,16.57
2019-01-27T19:01:00.266Z,16.15
2019-01-27T19:03:33.789Z,17.00
2019-01-27T19:06:01.730Z,17.25
2019-01-27T19:08:46.370Z,16.15
2019-01-27T19:11:14.408Z,16.62
2019-01-27T19:13:59.081Z,18.15
2019-01-27T19:16:29.820Z,19.50
2019-01-27T19:18:57.897Z,17.57
2019-01-27T19:21:34.665Z,16.85
2019-01-27T19:24:02.738Z,19.12
2019-01-27T19:26:36.761Z,18.40
2019-01-27T19:29:05.325Z,20.43
2019-01-27T19:31:33.439Z,20.70
2019-01-27T19:34:01.556Z,21.07
2019-01-27T19:36:36.597Z,22.50
2019-01-27T19:39:08.373Z,21.75
2019-01-27T19:41:42.870Z,22.70
2019-01-27T19:44:12.223Z,27.03
2019-01-27T19:46:52.244Z,21.37
2019-01-27T19:49:23.122Z,23.15
2019-01-27T19:52:09.404Z,26.05
2019-01-27T19:54:49.389Z,23.47
2019-01-27T19:57:35.197Z,27.27
2019-01-27T20:00:21.027Z,25.93
2019-01-27T20:02:56.807Z,26.20
2019-01-27T20:05:30.404Z,25.60
2019-01-27T20:08:16.457Z,27.10
2019-01-27T20:10:50.148Z,25.17
2019-01-27T20:13:36.383Z,22.97
2019-01-27T20:16:13.829Z,22.67
2019-01-27T20:18:41.884Z,25.00
2019-01-27T20:21:26.745Z,24.23
2019-01-27T20:23:57.651Z,25.47
2019-01-27T20:26:31.177Z,24.27
2019-01-27T20:29:14.519Z,24.92
2019-01-27T20:31:57.558Z,32.70
2019-01-27T20:34:43.772Z,26.82
2019-01-27T20:37:20.824Z,30.80
2019-01-27T20:39:54.654Z,26.93
2019-01-27T20:42:22.661Z,23.90
2019-01-27T20:44:53.527Z,24.05
2019-01-27T20:47:21.563Z,24.37
2019-01-27T20:49:49.563Z,20.05
2019-01-27T20:52:17.806Z,34.55
2019-01-27T20:55:02.986Z,35.15
2019-01-27T20:57:36.945Z,19.52
2019-01-27T21:00:14.780Z,24.10
2019-01-27T21:02:45.690Z,19.85
2019-01-27T21:05:16.221Z,20.97
2019-01-27T21:07:44.172Z,17.87
2019-01-27T21:10:16.145Z,22.70
2019-01-27T21:13:01.575Z,25.90
2019-01-27T21:15:29.305Z,20.20
2019-01-27T21:17:57.531Z,21.00
2019-01-27T21:20:24.992Z,24.43
2019-01-27T21:22:51.179Z,21.75
2019-01-27T21:25:17.575Z,17.23
2019-01-27T21:27:44.359Z,23.50
2019-01-27T21:30:13.921Z,19.25
2019-01-27T21:32:40.041Z,23.93
2019-01-27T21:35:08.276Z,18.70
2019-01-27T21:37:34.647Z,21.93
2019-01-27T21:40:00.714Z,25.50
2019-01-27T21:42:26.758Z,22.73
2019-01-27T21:44:52.881Z,19.80
2019-01-27T21:47:19.338Z,17.67
2019-01-27T21:49:45.385Z,17.70
2019-01-27T21:52:11.455Z,14.75
2019-01-27T21:54:37.504Z,20.48
2019-01-27T21:57:03.712Z,17.42
2019-01-27T21:59:29.827Z,17.12
2019-01-27T22:01:55.953Z,22.70
2019-01-27T22:04:22.189Z,21.90
2019-01-27T22:06:48.278Z,28.55
2019-01-27T22:09:14.387Z,23.40
2019-01-27T22:11:40.674Z,27.70
2019-01-27T22:14:06.736Z,20.95
2019-01-27T22:16:32.894Z,17.07
2019-01-27T22:18:58.946Z,28.73
2019-01-27T22:21:24.968Z,21.82
2019-01-27T22:23:51.095Z,21.45
2019-01-27T22:26:17.144Z,18.95
2019-01-27T22:28:43.183Z,21.55
2019-01-27T22:31:09.341Z,19.42
2019-01-27T22:33:35.393Z,21.37
2019-01-27T22:36:01.446Z,21.25
2019-01-27T22:38:27.539Z,18.10
2019-01-27T22:40:53.601Z,22.90
2019-01-27T22:43:19.792Z,17.65
2019-01-27T22:45:45.841Z,19.53
2019-01-27T22:48:11.894Z,23.62
2019-01-27T22:50:38.331Z,29.77
2019-01-27T22:53:04.428Z,24.57
2019-01-27T22:55:30.552Z,22.90
2019-01-27T22:57:56.801Z,24.53
2019-01-27T23:00:34.562Z,26.33
2019-01-27T23:03:02.631Z,22.65
2019-01-27T23:05:29.838Z,20.50
2019-01-27T23:07:56.192Z,24.07
2019-01-27T23:10:22.357Z,21.20
2019-01-27T23:12:48.401Z,21.57
2019-01-27T23:15:14.809Z,20.77
2019-01-27T23:17:40.967Z,23.85
2019-01-27T23:20:07.404Z,21.42
2019-01-27T23:22:33.595Z,21.45
2019-01-27T23:24:59.703Z,19.40
2019-01-27T23:27:25.848Z,22.00
2019-01-27T23:29:51.878Z,23.07
2019-01-27T23:32:32.109Z,19.75
2019-01-27T23:35:06.967Z,24.52
2019-01-27T23:37:34.890Z,21.48
2019-01-27T23:40:01.217Z,18.98
2019-01-27T23:42:27.461Z,17.70
2019-01-27T23:44:53.664Z,15.83
2019-01-27T23:47:20.047Z,22.60
2019-01-27T23:49:46.239Z,16.30
2019-01-27T23:52:12.465Z,20.68
2019-01-27T23:54:38.571Z,16.97
2019-01-27T23:57:04.641Z,18.75
2019-01-27T23:59:30.737Z,20.08
